Bensenville, Illinois
Current Conditions -  °F | °C
As of 7:51 AM on Monday 20 Oct 2014 (Local Time) from KORD Reporting Station
Few Clouds Few Clouds  
Wind Chill: 44°   Ceiling: Unl
Heat Index: 47°   Visibility: 10mi
Dew Point: 43°   Wind: 6mph
Humidity: 86%   Direction: 270°W
Pressure: 29.81"   Gusts: NA
Location:  41.96°N, 87.94°W
Report Text: KORD 201251Z 27005KT 10SM FEW070 08/06 A2981 RMK AO2 SLP097 T00830061 $
Loading
Personal Weather Stations






























Interactive Weather Map New forecast layout! Learn more

10-Day Weather Forecast

Advertisements
Track Severe Weather on mobile